Time;durP1;ratioP1;P1;durP2;ratioP2;P2;SDS_P1;SDS_P2;PMS_P1;PMS_P2;Temp;Humidity;BMP_temperature;BMP_pressure;BME280_temperature;BME280_humidity;BME280_pressure;Samples;Min_cycle;Max_cycle;Signal;HPM_P1;HPM_P2
2022/09/05 00:00:04;;;;;;;6.63;6.03;;;;;;;19.36;63.46;99768.28;5086246;28;20102;-72
2022/09/05 00:02:40;;;;;;;6.28;5.65;;;;;;;19.53;63.64;99800.00;5086228;28;20056;-72
2022/09/05 00:05:24;;;;;;;7.47;5.78;;;;;;;19.53;63.49;99797.31;5086079;28;20241;-72
2022/09/05 00:08:00;;;;;;;8.05;5.47;;;;;;;19.51;63.27;99790.34;5085991;28;20056;-73
2022/09/05 00:10:38;;;;;;;6.55;5.88;;;;;;;19.49;63.38;99792.31;5086387;28;20064;-72
2022/09/05 00:13:15;;;;;;;6.45;5.72;;;;;;;19.49;63.37;99792.31;5085835;28;20056;-72
2022/09/05 00:15:59;;;;;;;7.05;6.05;;;;;;;19.48;63.58;99796.84;5086145;28;20308;-72
2022/09/05 00:18:41;;;;;;;7.20;6.03;;;;;;;19.45;63.77;99785.50;5070244;28;20193;-72
2022/09/05 00:21:17;;;;;;;6.63;5.93;;;;;;;18.89;63.90;99713.19;5086025;28;20098;-73
2022/09/05 00:24:02;;;;;;;7.00;5.68;;;;;;;19.39;63.60;99789.56;5085977;28;20109;-72
2022/09/05 00:26:42;;;;;;;5.45;4.82;;;;;;;19.37;64.25;99788.81;5086175;28;20036;-72
2022/09/05 18:36:35;;;;;;;6.75;3.92;;;;;;;21.46;51.96;99489.75;5144456;27;20375;-71
2022/09/05 18:39:42;;;;;;;5.18;4.68;;;;;;;22.22;51.04;99606.31;5123163;28;20052;-71
2022/09/05 18:42:15;;;;;;;7.32;4.80;;;;;;;22.29;53.48;99601.16;5122901;28;20048;-72
2022/09/05 18:44:49;;;;;;;5.53;4.88;;;;;;;21.51;52.75;99465.03;5123045;28;20059;-71
2022/09/05 18:47:28;;;;;;;4.88;4.35;;;;;;;22.44;52.39;99612.28;5123025;28;20055;-72
2022/09/05 18:49:57;;;;;;;8.48;4.90;;;;;;;22.07;53.18;99548.47;5122846;28;20055;-72
2022/09/05 18:52:30;;;;;;;6.95;4.35;;;;;;;22.56;52.94;99614.66;5122748;28;20139;-71
2022/09/05 18:55:02;;;;;;;6.63;4.03;;;;;;;22.58;53.29;99607.25;5106561;28;20067;-71
2022/09/05 18:57:34;;;;;;;10.85;6.95;;;;;;;22.62;53.52;99608.63;5102684;28;20056;-72
2022/09/05 19:00:07;;;;;;;12.63;7.53;;;;;;;22.49;52.82;99574.88;5085015;28;20055;-72
2022/09/05 19:02:40;;;;;;;9.13;6.35;;;;;;;22.57;53.16;99583.94;5102084;28;20064;-71
2022/09/05 19:05:14;;;;;;;9.95;6.07;;;;;;;22.69;52.40;99601.59;5085362;28;20044;-73
2022/09/05 19:07:47;;;;;;;7.18;6.25;;;;;;;22.73;52.64;99615.63;5101846;28;20056;-72
2022/09/05 19:10:24;;;;;;;6.82;5.35;;;;;;;22.72;51.56;99600.44;5102318;28;20224;-72
2022/09/05 19:12:55;;;;;;;6.70;5.82;;;;;;;22.64;53.86;99584.16;5101944;28;20056;-72
2022/09/05 19:15:25;;;;;;;6.57;5.65;;;;;;;22.75;53.05;99599.28;5102177;28;20056;-72
2022/09/05 19:17:56;;;;;;;5.75;5.13;;;;;;;22.73;53.47;99597.56;5101776;28;20056;-72
2022/09/05 19:20:26;;;;;;;8.98;8.07;;;;;;;22.19;53.94;99505.91;5102061;28;20052;-71
2022/09/05 19:22:57;;;;;;;12.95;11.65;;;;;;;22.77;53.66;99599.97;5083998;28;20048;-73
2022/09/05 19:25:28;;;;;;;8.60;7.72;;;;;;;22.75;53.68;99596.56;5101797;28;20062;-72
2022/09/05 19:27:58;;;;;;;6.75;5.57;;;;;;;22.75;53.36;99599.28;5101968;28;20087;-72
2022/09/05 19:30:29;;;;;;;6.78;5.28;;;;;;;22.76;53.84;99592.88;5101353;28;20056;-72
2022/09/05 19:33:00;;;;;;;6.53;5.55;;;;;;;22.77;53.53;99594.56;5101693;28;20109;-71
2022/09/05 19:35:28;;;;;;;6.80;4.70;;;;;;;22.62;53.83;99572.66;5101195;28;20056;-72
2022/09/05 19:37:59;;;;;;;5.82;5.07;;;;;;;22.73;52.63;99594.88;5101567;28;20065;-72
2022/09/05 19:40:34;;;;;;;6.60;5.70;;;;;;;22.56;53.17;99565.19;5101181;28;20064;-73
2022/09/05 19:43:03;;;;;;;5.53;4.95;;;;;;;22.72;53.99;99600.44;5101570;28;20093;-72
2022/09/05 19:45:30;;;;;;;8.07;5.97;;;;;;;22.28;53.51;99540.06;5101091;28;20113;-72
2022/09/05 19:48:15;;;;;;;9.00;8.10;;;;;;;22.64;54.05;99589.56;5087541;28;20056;-72
2022/09/05 19:50:43;;;;;;;8.85;7.53;;;;;;;22.63;54.32;99588.72;5088384;28;20040;-72
2022/09/05 19:53:14;;;;;;;10.73;5.60;;;;;;;22.65;53.15;99586.69;5087753;28;20056;-72
2022/09/05 19:55:43;;;;;;;5.50;4.60;;;;;;;22.62;54.25;99595.13;5088158;28;20033;-72
2022/09/05 19:58:12;;;;;;;5.45;4.50;;;;;;;22.59;53.96;99579.22;5087744;28;20106;-72
2022/09/05 20:00:41;;;;;;;6.53;5.13;;;;;;;22.42;54.35;99555.75;5087665;28;20082;-72
2022/09/05 20:03:08;;;;;;;7.32;5.63;;;;;;;22.56;54.03;99581.38;5087701;28;20301;-72
2022/09/05 20:05:39;;;;;;;6.80;5.47;;;;;;;22.55;54.10;99582.38;5087139;28;20110;-72
2022/09/05 20:08:11;;;;;;;6.82;6.18;;;;;;;22.50;53.88;99580.13;5087442;28;20067;-72
2022/09/05 20:10:40;;;;;;;5.35;4.78;;;;;;;22.50;54.36;99584.66;5087247;28;20064;-72
2022/09/05 20:13:20;;;;;;;5.88;4.85;;;;;;;22.49;53.45;99589.22;5087216;28;20259;-72
2022/09/05 20:15:48;;;;;;;6.00;4.97;;;;;;;22.41;54.30;99578.34;5087291;28;20114;-72
2022/09/05 20:18:21;;;;;;;6.07;4.50;;;;;;;22.44;53.03;99580.75;5087322;28;20052;-71
2022/09/05 20:20:54;;;;;;;6.70;5.47;;;;;;;22.45;52.77;99585.13;5087265;28;20056;-72
2022/09/05 20:23:24;;;;;;;6.72;5.25;;;;;;;22.40;54.37;99582.91;5087435;28;20094;-72
2022/09/05 20:25:55;;;;;;;7.60;6.82;;;;;;;22.39;54.09;99580.31;5087042;28;20057;-72
2022/09/05 20:28:25;;;;;;;8.18;5.80;;;;;;;22.40;54.13;99582.91;5087303;28;20251;-71
2022/09/05 20:30:54;;;;;;;7.38;5.10;;;;;;;22.35;53.68;99573.53;5086795;28;20098;-71
2022/09/05 20:33:26;;;;;;;5.65;5.05;;;;;;;22.32;54.31;99579.25;5086906;28;20060;-71
2022/09/05 20:35:58;;;;;;;7.47;5.50;;;;;;;22.29;53.55;99574.16;5086819;28;20048;-71
2022/09/05 20:38:30;;;;;;;6.68;5.47;;;;;;;22.31;53.91;99575.69;5069380;28;20056;-71
2022/09/05 20:41:03;;;;;;;8.43;5.38;;;;;;;22.29;53.50;99576.84;5069810;28;20060;-71
2022/09/05 20:43:51;;;;;;;6.83;5.37;;;;;;;22.22;53.20;99573.06;5086783;28;20128;-71
2022/09/05 20:46:32;;;;;;;10.98;6.13;;;;;;;22.19;53.16;99576.91;5086711;28;20053;-71
2022/09/05 20:48:59;;;;;;;8.80;7.57;;;;;;;22.19;54.46;99576.06;5086364;28;20263;-71
2022/09/05 20:51:28;;;;;;;6.90;5.95;;;;;;;22.22;54.39;99573.06;5086728;28;20255;-71
2022/09/05 20:53:57;;;;;;;7.32;6.00;;;;;;;22.21;54.47;99574.06;5087184;28;20053;-71
2022/09/05 20:56:31;;;;;;;6.20;5.35;;;;;;;22.20;53.39;99578.63;5086169;28;20122;-71
2022/09/05 20:58:59;;;;;;;6.55;5.68;;;;;;;21.80;54.23;99516.13;5085346;28;20102;-71
2022/09/05 21:01:31;;;;;;;6.63;5.93;;;;;;;22.20;54.58;99572.38;5086373;28;20110;-71
2022/09/05 21:03:59;;;;;;;6.80;5.97;;;;;;;22.20;54.03;99577.78;5086206;28;20060;-71
2022/09/05 21:06:29;;;;;;;9.30;7.45;;;;;;;22.17;53.83;99578.09;5085817;28;20331;-71
2022/09/05 21:09:13;;;;;;;7.65;6.63;;;;;;;22.13;52.97;99572.13;5086349;28;20044;-71
2022/09/05 21:11:43;;;;;;;6.50;5.65;;;;;;;22.12;54.23;99565.03;5086038;28;20086;-71
2022/09/05 21:14:17;;;;;;;9.48;5.53;;;;;;;22.13;54.20;99572.13;5085923;28;20056;-71
2022/09/05 21:16:48;;;;;;;7.10;6.25;;;;;;;22.10;54.29;99572.44;5086095;28;20056;-71
2022/09/05 21:19:23;;;;;;;6.43;5.82;;;;;;;22.11;53.59;99568.75;5085542;28;20057;-71
2022/09/05 21:22:02;;;;;;;6.45;5.43;;;;;;;22.05;53.41;99564.81;5085932;28;20098;-71
2022/09/05 21:24:29;;;;;;;6.18;4.97;;;;;;;22.02;54.61;99570.50;5085782;28;20064;-71
2022/09/05 21:27:14;;;;;;;16.40;12.93;;;;;;;21.95;53.50;99568.56;5085724;28;20052;-71
2022/09/05 21:29:41;;;;;;;11.18;9.55;;;;;;;21.94;54.36;99569.56;5085772;28;20064;-70
2022/09/05 21:32:11;;;;;;;9.18;6.70;;;;;;;21.94;54.56;99564.19;5085673;28;20106;-70
2022/09/05 21:34:45;;;;;;;9.48;6.18;;;;;;;21.92;54.13;99567.03;5085380;28;20048;-70
2022/09/05 21:37:14;;;;;;;7.33;6.53;;;;;;;21.89;54.67;99563.78;5085839;28;20255;-71
2022/09/05 21:39:47;;;;;;;6.40;5.75;;;;;;;21.88;54.41;99568.31;5086250;28;20475;-71
2022/09/05 21:42:17;;;;;;;8.50;6.53;;;;;;;21.78;54.65;99559.41;5085781;28;20056;-71
2022/09/05 21:44:44;;;;;;;8.63;6.70;;;;;;;21.81;54.34;99566.38;5085660;28;20315;-71
2022/09/05 21:47:15;;;;;;;6.45;5.38;;;;;;;21.76;54.61;99562.25;5085239;28;20061;-71
2022/09/05 21:49:42;;;;;;;8.15;6.07;;;;;;;21.74;54.61;99558.88;5085272;28;20057;-71
2022/09/05 21:52:10;;;;;;;8.18;7.00;;;;;;;21.61;54.34;99536.78;5085647;28;20056;-71
2022/09/05 21:54:40;;;;;;;7.28;6.55;;;;;;;21.74;54.71;99555.31;5085073;28;20056;-71
2022/09/05 21:57:16;;;;;;;7.10;5.80;;;;;;;21.74;53.86;99558.88;5085504;28;20060;-71
2022/09/05 21:59:47;;;;;;;7.05;5.70;;;;;;;21.67;54.33;99554.22;5068822;28;20052;-71
2022/09/05 22:02:15;;;;;;;5.57;4.97;;;;;;;21.64;54.30;99554.53;5085671;28;20248;-71
2022/09/05 22:04:42;;;;;;;9.55;6.70;;;;;;;21.16;54.40;99496.31;5085343;28;20193;-71
2022/09/05 22:07:13;;;;;;;7.07;5.97;;;;;;;21.50;54.35;99541.53;5067602;28;20060;-71
2022/09/05 22:09:40;;;;;;;8.90;5.50;;;;;;;20.99;54.74;99465.56;5085317;28;20102;-71
2022/09/05 22:12:10;;;;;;;6.20;5.40;;;;;;;21.50;54.71;99547.78;5085189;28;20048;-71
2022/09/05 22:14:38;;;;;;;6.05;5.07;;;;;;;21.50;54.77;99546.94;5085009;28;20098;-71
2022/09/05 22:17:07;;;;;;;5.35;4.75;;;;;;;21.09;54.35;99476.34;5085342;28;20106;-71
2022/09/05 22:19:35;;;;;;;6.28;4.80;;;;;;;21.40;54.62;99533.50;5067456;28;20040;-71
2022/09/05 22:22:06;;;;;;;8.15;5.38;;;;;;;20.89;55.16;99453.13;5084860;28;20248;-72
2022/09/05 22:24:35;;;;;;;6.25;4.90;;;;;;;21.43;55.09;99541.28;5085464;28;20086;-71
2022/09/05 22:27:04;;;;;;;6.63;5.28;;;;;;;21.41;54.84;99536.03;5085135;28;20108;-71
